createdAt,value
2017-05-18T00:01:44.122Z,44.10
2017-05-18T00:04:10.486Z,43.99
2017-05-18T00:06:36.836Z,44.11
2017-05-18T00:09:03.939Z,45.18
2017-05-18T00:11:30.913Z,44.46
2017-05-18T00:13:58.005Z,44.86
2017-05-18T00:16:24.403Z,45.39
2017-05-18T00:18:50.896Z,45.15
2017-05-18T00:21:17.277Z,44.37
2017-05-18T00:23:44.316Z,44.54
2017-05-18T00:26:10.659Z,46.03
2017-05-18T00:28:37.036Z,45.12
2017-05-18T00:31:03.449Z,45.87
2017-05-18T00:33:29.826Z,45.02
2017-05-18T00:35:56.154Z,45.82
2017-05-18T00:38:22.510Z,46.03
2017-05-18T00:40:48.836Z,45.70
2017-05-18T00:43:15.183Z,45.52
2017-05-18T00:45:41.525Z,46.90
2017-05-18T00:48:07.861Z,46.61
2017-05-18T00:50:34.196Z,45.94
2017-05-18T00:53:00.557Z,45.90
2017-05-18T00:55:26.903Z,45.89
2017-05-18T00:57:53.562Z,46.08
2017-05-18T01:00:23.390Z,45.79
2017-05-18T01:02:49.885Z,46.43
2017-05-18T01:05:16.335Z,46.31
2017-05-18T01:07:43.078Z,46.03
2017-05-18T01:10:09.774Z,45.99
2017-05-18T01:12:36.305Z,45.84
2017-05-18T01:15:02.665Z,45.89
2017-05-18T01:17:29.036Z,46.37
2017-05-18T01:19:55.403Z,47.17
2017-05-18T01:22:21.735Z,47.08
2017-05-18T01:24:48.083Z,48.29
2017-05-18T01:27:14.431Z,47.12
2017-05-18T01:29:40.765Z,46.16
2017-05-18T01:32:07.125Z,46.56
2017-05-18T01:34:33.520Z,47.29
2017-05-18T01:36:59.877Z,46.85
2017-05-18T01:39:26.279Z,46.22
2017-05-18T01:41:52.634Z,46.67
2017-05-18T01:44:19.022Z,46.80
2017-05-18T01:46:45.379Z,46.42
2017-05-18T01:49:11.773Z,46.55
2017-05-18T01:51:38.158Z,47.13
2017-05-18T01:54:04.477Z,46.45
2017-05-18T01:56:30.823Z,47.41
2017-05-18T01:58:57.236Z,46.54
2017-05-18T02:01:23.571Z,47.17
2017-05-18T02:03:49.943Z,47.87
2017-05-18T02:06:16.284Z,47.92
2017-05-18T02:08:42.645Z,48.59
2017-05-18T02:11:08.975Z,47.99
2017-05-18T02:13:35.326Z,47.29
2017-05-18T02:16:01.666Z,48.14
2017-05-18T02:20:54.149Z,48.47
2017-05-18T02:23:20.478Z,48.34
2017-05-18T02:25:46.821Z,48.53
2017-05-18T02:28:13.179Z,48.17
2017-05-18T02:30:39.506Z,48.29
2017-05-18T02:33:05.846Z,49.09
2017-05-18T02:35:32.210Z,49.94
2017-05-18T02:37:58.541Z,48.01
2017-05-18T02:40:24.862Z,48.21
2017-05-18T02:42:51.199Z,47.99
2017-05-18T02:45:17.516Z,48.76
2017-05-18T02:47:43.860Z,48.58
2017-05-18T02:50:10.212Z,48.87
2017-05-18T02:52:36.667Z,50.94
2017-05-18T02:55:03.014Z,50.48
2017-05-18T02:57:29.352Z,50.55
2017-05-18T02:59:55.708Z,51.37
2017-05-18T03:02:22.112Z,49.26
2017-05-18T03:04:48.437Z,48.37
2017-05-18T03:07:14.880Z,49.02
2017-05-18T03:09:41.570Z,49.01
2017-05-18T03:12:08.474Z,51.01
2017-05-18T03:14:35.012Z,49.41
2017-05-18T03:17:02.025Z,50.20
2017-05-18T03:19:28.714Z,49.41
2017-05-18T03:21:55.912Z,51.08
2017-05-18T03:24:22.307Z,49.96
2017-05-18T03:26:48.681Z,50.16
2017-05-18T03:29:15.790Z,51.27
2017-05-18T03:31:42.200Z,51.48
2017-05-18T03:34:08.535Z,50.85
2017-05-18T03:36:35.089Z,50.60
2017-05-18T03:39:01.456Z,50.39
2017-05-18T03:41:27.804Z,50.31
2017-05-18T03:43:54.163Z,50.33
2017-05-18T03:46:20.531Z,51.01
2017-05-18T03:48:46.906Z,50.85
2017-05-18T03:51:13.274Z,50.83
2017-05-18T03:53:39.649Z,52.52
2017-05-18T03:56:05.988Z,51.43
2017-05-18T03:58:32.355Z,51.32
2017-05-18T04:00:58.690Z,52.35
2017-05-18T04:03:25.094Z,51.14
2017-05-18T04:05:51.437Z,51.08
2017-05-18T04:08:17.790Z,51.59
2017-05-18T04:10:44.156Z,51.22
2017-05-18T04:13:10.537Z,51.82
2017-05-18T04:15:36.914Z,51.21
2017-05-18T04:18:03.230Z,50.97
2017-05-18T04:20:32.419Z,54.37
2017-05-18T04:22:58.801Z,53.06
2017-05-18T04:25:25.230Z,51.95
2017-05-18T04:27:51.897Z,52.27
2017-05-18T04:30:18.219Z,51.86
2017-05-18T04:32:44.580Z,52.15
2017-05-18T04:35:10.960Z,52.33
2017-05-18T04:37:37.295Z,53.29
2017-05-18T04:40:03.641Z,52.83
2017-05-18T04:42:29.999Z,53.17
2017-05-18T04:44:56.376Z,53.40
2017-05-18T04:47:22.771Z,53.17
2017-05-18T04:49:49.149Z,54.12
2017-05-18T04:52:15.487Z,52.59
2017-05-18T04:54:41.832Z,53.69
2017-05-18T04:57:08.212Z,54.01
2017-05-18T04:59:34.548Z,58.65
2017-05-18T05:02:01.033Z,53.62
2017-05-18T05:04:27.343Z,53.05
2017-05-18T05:06:53.666Z,53.68
2017-05-18T05:09:19.997Z,54.74
2017-05-18T05:11:46.319Z,55.07
2017-05-18T05:14:12.637Z,53.25
2017-05-18T05:16:38.957Z,55.65
2017-05-18T05:19:05.263Z,54.86
2017-05-18T05:21:31.576Z,55.62
2017-05-18T05:23:57.906Z,55.77
2017-05-18T05:26:24.227Z,56.54
2017-05-18T05:28:50.598Z,54.89
2017-05-18T05:31:16.915Z,56.10
2017-05-18T05:33:43.278Z,56.26
2017-05-18T05:36:09.609Z,57.03
2017-05-18T05:38:35.931Z,56.01
2017-05-18T05:41:02.257Z,56.02
2017-05-18T05:43:28.557Z,55.40
2017-05-18T05:45:54.926Z,56.05
2017-05-18T05:48:21.238Z,57.18
2017-05-18T05:50:47.595Z,56.06
2017-05-18T05:53:13.929Z,55.09
2017-05-18T05:55:40.242Z,56.49
2017-05-18T05:58:06.580Z,56.87
2017-05-18T06:00:32.893Z,58.20
2017-05-18T06:02:59.227Z,57.06
2017-05-18T06:05:25.573Z,55.82
2017-05-18T06:07:51.875Z,56.90
2017-05-18T06:10:18.194Z,55.81
2017-05-18T06:12:44.535Z,58.33
2017-05-18T06:15:10.855Z,58.46
2017-05-18T06:17:37.194Z,56.64
2017-05-18T06:20:03.544Z,55.85
2017-05-18T06:22:29.879Z,57.42
2017-05-18T06:24:56.233Z,56.51
2017-05-18T06:27:22.560Z,57.24
2017-05-18T06:29:48.910Z,55.86
2017-05-18T06:32:15.263Z,56.29
2017-05-18T06:34:41.633Z,57.60
2017-05-18T06:37:07.952Z,55.15
2017-05-18T06:39:34.288Z,58.07
2017-05-18T06:42:00.622Z,56.47
2017-05-18T06:44:26.922Z,57.25
2017-05-18T06:46:53.259Z,58.00
2017-05-18T06:49:19.579Z,61.08
2017-05-18T06:51:45.902Z,59.33
2017-05-18T06:54:12.266Z,62.73
2017-05-18T06:56:38.608Z,60.87
2017-05-18T06:59:04.931Z,60.29
2017-05-18T07:01:31.240Z,61.40
2017-05-18T07:03:57.595Z,61.42
2017-05-18T07:06:23.922Z,60.26
2017-05-18T07:08:50.256Z,60.13
2017-05-18T07:11:16.631Z,59.58
2017-05-18T07:13:42.962Z,60.75
2017-05-18T07:16:09.274Z,62.33
2017-05-18T07:18:35.624Z,59.47
2017-05-18T07:21:01.962Z,61.53
2017-05-18T07:23:28.283Z,61.43
2017-05-18T07:25:54.678Z,62.19
2017-05-18T07:28:21.013Z,60.43
2017-05-18T07:30:47.333Z,60.04
2017-05-18T07:33:13.680Z,59.60
2017-05-18T07:35:40.031Z,61.83
2017-05-18T07:38:06.346Z,62.51
2017-05-18T07:40:32.683Z,59.99
2017-05-18T07:42:59.022Z,59.94
2017-05-18T07:45:25.549Z,61.56
2017-05-18T07:47:51.886Z,62.02
2017-05-18T07:50:18.195Z,63.07
2017-05-18T07:52:44.516Z,63.53
2017-05-18T07:55:10.844Z,64.94
2017-05-18T07:57:37.194Z,60.83
2017-05-18T08:00:03.527Z,61.79
2017-05-18T08:02:29.830Z,61.47
2017-05-18T08:04:56.181Z,62.18
2017-05-18T08:07:22.495Z,64.86
2017-05-18T08:09:48.847Z,63.21
2017-05-18T08:12:15.221Z,66.16
2017-05-18T08:14:42.157Z,63.59
2017-05-18T08:17:08.487Z,66.29
2017-05-18T08:19:34.841Z,65.37
2017-05-18T08:24:39.634Z,68.51
2017-05-18T08:27:05.971Z,65.54
2017-05-18T08:29:32.310Z,68.88
2017-05-18T08:31:58.638Z,67.57
2017-05-18T08:34:24.933Z,65.71
2017-05-18T08:36:51.257Z,64.88
2017-05-18T08:39:17.601Z,65.83
2017-05-18T08:41:43.917Z,63.08
2017-05-18T08:44:10.267Z,64.09
2017-05-18T08:46:36.591Z,65.00
2017-05-18T08:49:02.925Z,63.24
2017-05-18T08:51:29.370Z,65.01
2017-05-18T08:53:55.686Z,68.24
2017-05-18T08:56:22.000Z,62.96
2017-05-18T08:58:48.373Z,64.19
2017-05-18T09:01:14.703Z,61.44
2017-05-18T09:03:41.052Z,63.22
2017-05-18T09:06:07.392Z,61.36
2017-05-18T09:08:33.713Z,63.88
2017-05-18T09:11:00.034Z,60.36
2017-05-18T09:13:26.400Z,59.24
2017-05-18T09:15:52.734Z,60.71
2017-05-18T09:18:19.102Z,64.15
2017-05-18T09:20:45.461Z,61.86
2017-05-18T09:23:11.802Z,60.98
2017-05-18T09:25:38.179Z,60.15
2017-05-18T09:28:04.512Z,57.08
2017-05-18T09:30:30.865Z,59.11
2017-05-18T09:32:57.199Z,58.25
2017-05-18T09:35:23.517Z,55.58
2017-05-18T09:37:49.894Z,55.38
2017-05-18T09:40:16.335Z,54.89
2017-05-18T09:42:42.676Z,60.14
2017-05-18T09:45:09.002Z,61.29
2017-05-18T09:47:35.310Z,62.63
2017-05-18T09:50:01.662Z,61.71
2017-05-18T09:52:28.008Z,62.75
2017-05-18T09:54:54.347Z,63.98
2017-05-18T09:57:20.677Z,63.21
2017-05-18T09:59:47.028Z,61.73
2017-05-18T10:02:13.363Z,64.01
2017-05-18T10:04:39.691Z,63.71
2017-05-18T10:07:05.996Z,63.79
2017-05-18T10:09:32.350Z,63.04
2017-05-18T10:11:58.666Z,60.74
2017-05-18T10:14:25.025Z,63.08
2017-05-18T10:16:51.753Z,66.23
2017-05-18T10:19:18.115Z,63.07
2017-05-18T10:21:44.473Z,62.26
2017-05-18T10:24:10.826Z,62.09
2017-05-18T10:26:37.211Z,63.59
2017-05-18T10:29:03.562Z,63.44
2017-05-18T10:31:29.892Z,63.17
2017-05-18T10:33:56.220Z,61.46
2017-05-18T10:36:22.548Z,61.85
2017-05-18T10:38:48.894Z,62.39
2017-05-18T10:41:15.237Z,62.24
2017-05-18T10:43:41.587Z,61.46
2017-05-18T10:46:07.929Z,63.67
2017-05-18T10:48:34.255Z,61.26
2017-05-18T10:51:00.689Z,62.00
2017-05-18T10:53:27.124Z,64.15
2017-05-18T10:55:53.526Z,63.74
2017-05-18T10:58:19.931Z,63.81
2017-05-18T11:00:46.349Z,64.01
2017-05-18T11:03:12.696Z,64.82
2017-05-18T11:05:39.127Z,64.19
2017-05-18T11:08:05.514Z,66.73
2017-05-18T11:10:31.860Z,67.92
2017-05-18T11:12:58.225Z,67.25
2017-05-18T11:15:24.625Z,67.14
2017-05-18T11:17:50.946Z,69.14
2017-05-18T11:20:17.302Z,70.97
2017-05-18T11:22:43.698Z,72.20
2017-05-18T11:25:12.198Z,65.46
2017-05-18T11:27:38.519Z,72.48
2017-05-18T11:30:04.861Z,78.43
2017-05-18T11:32:31.211Z,72.20
2017-05-18T11:34:57.549Z,71.80
2017-05-18T11:37:23.909Z,72.08
2017-05-18T11:39:50.245Z,75.26
2017-05-18T11:42:16.585Z,71.67
2017-05-18T11:44:42.942Z,70.44
2017-05-18T11:47:09.310Z,72.93
2017-05-18T11:49:35.650Z,70.89
2017-05-18T11:52:01.984Z,76.15
2017-05-18T11:54:28.319Z,73.75
2017-05-18T11:56:55.028Z,78.71
2017-05-18T11:59:22.659Z,79.25
2017-05-18T12:01:49.040Z,78.92
2017-05-18T12:04:15.414Z,76.86
2017-05-18T12:06:41.767Z,74.74
2017-05-18T12:09:09.022Z,79.08
2017-05-18T12:11:35.375Z,75.27
2017-05-18T12:14:01.733Z,79.83
2017-05-18T12:16:28.069Z,75.54
2017-05-18T12:18:54.401Z,78.06
2017-05-18T12:21:20.825Z,77.76
2017-05-18T12:23:47.196Z,77.07
2017-05-18T12:26:13.559Z,76.20
2017-05-18T12:28:39.970Z,79.72
2017-05-18T12:31:06.345Z,78.15
2017-05-18T12:33:32.741Z,77.74
2017-05-18T12:35:59.171Z,79.14
2017-05-18T12:38:25.554Z,78.00
2017-05-18T12:40:51.982Z,76.05
2017-05-18T12:43:18.383Z,77.93
2017-05-18T12:45:44.889Z,76.93
2017-05-18T12:48:11.235Z,75.87
2017-05-18T12:50:37.600Z,73.39
2017-05-18T12:53:03.988Z,71.17
2017-05-18T12:55:30.337Z,76.98
2017-05-18T12:57:56.671Z,79.18
2017-05-18T13:00:23.009Z,75.92
2017-05-18T13:02:49.400Z,76.80
2017-05-18T13:05:15.740Z,71.42
2017-05-18T13:07:42.070Z,70.88
2017-05-18T13:10:08.422Z,76.96
2017-05-18T13:12:34.745Z,77.17
2017-05-18T13:15:01.105Z,72.81
2017-05-18T13:17:27.453Z,71.87
2017-05-18T13:19:53.821Z,74.91
2017-05-18T13:22:20.210Z,72.41
2017-05-18T13:24:46.547Z,71.22
2017-05-18T13:27:12.883Z,73.37
2017-05-18T13:29:39.240Z,70.76
2017-05-18T13:32:05.594Z,70.58
2017-05-18T13:34:31.999Z,73.68
2017-05-18T13:36:58.369Z,74.81
2017-05-18T13:39:24.722Z,78.56
2017-05-18T13:41:51.160Z,76.03
2017-05-18T13:44:18.517Z,74.60
2017-05-18T13:46:44.942Z,72.67
2017-05-18T13:49:11.273Z,77.70
2017-05-18T13:51:37.631Z,76.71
2017-05-18T13:54:03.971Z,78.76
2017-05-18T13:56:30.358Z,79.39
2017-05-18T13:58:56.688Z,78.01
2017-05-18T14:01:23.032Z,75.97
2017-05-18T14:03:49.378Z,76.30
2017-05-18T14:06:15.730Z,75.22
2017-05-18T14:08:42.089Z,74.25
2017-05-18T14:11:08.436Z,74.48
2017-05-18T14:13:34.778Z,73.99
2017-05-18T14:16:01.114Z,73.53
2017-05-18T14:18:27.504Z,75.50
2017-05-18T14:20:53.853Z,73.46
2017-05-18T14:23:20.225Z,72.76
2017-05-18T14:25:46.603Z,72.24
2017-05-18T14:28:12.949Z,71.87
2017-05-18T14:30:39.284Z,73.82
2017-05-18T14:33:05.627Z,74.16
2017-05-18T14:35:31.954Z,74.80
2017-05-18T14:37:58.284Z,73.91
2017-05-18T14:40:24.653Z,74.34
2017-05-18T14:42:51.022Z,75.89
2017-05-18T14:45:17.372Z,74.39
2017-05-18T14:47:43.711Z,74.97
2017-05-18T14:50:10.062Z,72.26
2017-05-18T14:52:36.395Z,75.75
2017-05-18T14:55:02.753Z,71.99
2017-05-18T14:57:29.130Z,75.60
2017-05-18T14:59:55.477Z,71.54
2017-05-18T15:02:21.819Z,71.57
2017-05-18T15:04:48.147Z,74.62
2017-05-18T15:07:14.486Z,74.46
2017-05-18T15:09:40.791Z,73.59
2017-05-18T15:12:07.151Z,71.95
2017-05-18T15:14:33.489Z,70.71
2017-05-18T15:16:59.831Z,71.92
2017-05-18T15:19:26.166Z,75.32
2017-05-18T15:21:52.529Z,75.05
2017-05-18T15:24:18.925Z,72.86
2017-05-18T15:26:45.256Z,74.29
2017-05-18T15:29:11.595Z,74.45
2017-05-18T15:31:37.958Z,72.16
2017-05-18T15:34:04.348Z,72.66
2017-05-18T15:36:30.723Z,72.58
2017-05-18T15:38:57.061Z,74.31
2017-05-18T15:41:23.415Z,74.21
2017-05-18T15:43:49.742Z,74.98
2017-05-18T15:46:16.169Z,70.58
2017-05-18T15:48:42.492Z,70.83
2017-05-18T15:51:08.852Z,74.61
2017-05-18T15:53:35.173Z,71.88
2017-05-18T15:56:01.517Z,72.32
2017-05-18T15:58:27.867Z,74.12
2017-05-18T16:00:54.238Z,75.22
2017-05-18T16:03:24.402Z,71.56
2017-05-18T16:05:54.449Z,71.97
2017-05-18T16:08:20.979Z,71.96
2017-05-18T16:10:47.329Z,74.95
2017-05-18T16:13:13.728Z,75.09
2017-05-18T16:15:40.117Z,72.69
2017-05-18T16:18:06.442Z,74.26
2017-05-18T16:20:32.826Z,75.15
2017-05-18T16:22:59.146Z,74.09
2017-05-18T16:25:25.485Z,74.34
2017-05-18T16:27:51.847Z,73.43
2017-05-18T16:30:18.235Z,75.73
2017-05-18T16:32:44.542Z,76.40
2017-05-18T16:35:10.879Z,76.24
2017-05-18T16:37:37.216Z,77.61
2017-05-18T16:40:03.784Z,77.01
2017-05-18T16:42:30.179Z,76.67
2017-05-18T16:44:56.544Z,77.40
2017-05-18T16:47:22.886Z,77.22
2017-05-18T16:49:49.209Z,77.75
2017-05-18T16:52:15.543Z,76.33
2017-05-18T16:54:41.872Z,75.75
2017-05-18T16:57:08.208Z,76.62
2017-05-18T16:59:34.599Z,74.02
2017-05-18T17:02:00.925Z,75.27
2017-05-18T17:04:27.833Z,74.69
2017-05-18T17:06:54.207Z,74.91
2017-05-18T17:09:20.617Z,76.17
2017-05-18T17:11:47.035Z,75.53
2017-05-18T17:14:14.433Z,75.02
2017-05-18T17:16:40.844Z,73.76
2017-05-18T17:19:07.233Z,76.45
2017-05-18T17:21:33.587Z,76.27
2017-05-18T17:23:59.918Z,74.60
2017-05-18T17:26:26.265Z,73.43
2017-05-18T17:28:52.618Z,73.01
2017-05-18T17:31:18.965Z,73.96
2017-05-18T17:33:45.354Z,74.87
2017-05-18T17:36:11.690Z,73.76
2017-05-18T17:38:38.034Z,72.63
2017-05-18T17:41:04.392Z,74.79
2017-05-18T17:43:30.759Z,75.80
2017-05-18T17:45:57.112Z,73.79
2017-05-18T17:48:23.991Z,73.05
2017-05-18T17:50:50.335Z,73.33
2017-05-18T17:53:16.672Z,73.33
2017-05-18T17:55:43.057Z,73.38
2017-05-18T17:58:09.482Z,75.97
2017-05-18T18:00:36.236Z,73.83
2017-05-18T18:03:02.689Z,77.20
2017-05-18T18:05:34.296Z,75.70
2017-05-18T18:08:00.857Z,72.70
2017-05-18T18:10:27.346Z,72.62
2017-05-18T18:12:59.177Z,70.97
2017-05-18T18:15:25.709Z,69.64
2017-05-18T18:17:57.362Z,76.46
2017-05-18T18:20:23.765Z,77.90
2017-05-18T18:22:50.297Z,74.06
2017-05-18T18:25:16.775Z,75.52
2017-05-18T18:27:48.493Z,72.39
2017-05-18T18:30:20.035Z,71.36
2017-05-18T18:32:47.447Z,72.05
2017-05-18T18:35:19.534Z,77.45
2017-05-18T18:37:45.881Z,76.95
2017-05-18T18:40:12.860Z,77.68
2017-05-18T18:42:47.290Z,78.08
2017-05-18T18:45:18.969Z,78.82
2017-05-18T18:47:45.887Z,79.42
2017-05-18T18:50:13.198Z,79.58
2017-05-18T18:52:45.049Z,77.55
2017-05-18T18:55:17.986Z,78.54
2017-05-18T18:57:45.122Z,81.45
2017-05-18T19:00:11.735Z,79.64
2017-05-18T19:02:38.584Z,78.96
2017-05-18T19:05:06.090Z,79.18
2017-05-18T19:07:32.760Z,77.02
2017-05-18T19:10:06.545Z,79.15
2017-05-18T19:12:33.117Z,80.72
2017-05-18T19:15:00.633Z,79.79
2017-05-18T19:17:28.470Z,80.00
2017-05-18T19:19:55.434Z,81.27
2017-05-18T19:22:28.427Z,81.52
2017-05-18T19:24:58.074Z,79.97
2017-05-18T19:27:24.498Z,77.79
2017-05-18T19:29:57.574Z,76.21
2017-05-18T19:32:24.078Z,80.13
2017-05-18T19:34:51.755Z,81.02
2017-05-18T19:37:18.239Z,81.28
2017-05-18T19:39:44.806Z,81.07
2017-05-18T19:42:11.682Z,80.83
2017-05-18T19:44:43.301Z,79.86
2017-05-18T19:47:12.659Z,80.88
2017-05-18T19:49:39.192Z,80.38
2017-05-18T19:52:11.240Z,81.87
2017-05-18T19:57:13.331Z,83.42
2017-05-18T20:14:42.470Z,83.44
2017-05-18T20:17:09.000Z,83.43
2017-05-18T20:19:45.404Z,83.03
2017-05-18T20:22:11.764Z,84.71
2017-05-18T20:24:45.427Z,85.09
2017-05-18T20:27:11.805Z,85.49
2017-05-18T20:29:38.230Z,86.92
2017-05-18T20:32:04.585Z,87.92
2017-05-18T20:34:30.939Z,87.11
2017-05-18T20:36:57.280Z,83.55
2017-05-18T20:39:23.615Z,84.27
2017-05-18T20:41:49.952Z,83.17
2017-05-18T20:44:16.313Z,80.47
2017-05-18T20:46:42.655Z,79.11
2017-05-18T20:49:09.094Z,82.37
2017-05-18T20:51:35.429Z,85.76
2017-05-18T20:54:01.811Z,83.48
2017-05-18T20:56:28.148Z,82.91
2017-05-18T20:58:54.566Z,83.46
2017-05-18T21:01:20.931Z,83.29
2017-05-18T21:03:47.281Z,85.33
2017-05-18T21:06:13.591Z,83.15
2017-05-18T21:08:39.923Z,83.39
2017-05-18T21:11:06.247Z,85.80
2017-05-18T21:13:32.575Z,83.54
2017-05-18T21:15:58.921Z,84.38
2017-05-18T21:18:25.265Z,84.81
2017-05-18T21:20:51.651Z,85.66
2017-05-18T21:23:17.991Z,82.24
2017-05-18T21:25:44.345Z,82.87
2017-05-18T21:28:10.716Z,86.25
2017-05-18T21:30:37.088Z,85.47
2017-05-18T21:33:03.455Z,85.39
2017-05-18T21:35:29.806Z,84.83
2017-05-18T21:37:56.153Z,85.84
2017-05-18T21:40:22.531Z,87.43
2017-05-18T21:42:48.848Z,86.09
2017-05-18T21:45:15.228Z,85.99
2017-05-18T21:47:41.577Z,87.84
2017-05-18T21:50:07.910Z,88.50
2017-05-18T21:52:34.322Z,87.26
2017-05-18T21:55:00.692Z,87.97
2017-05-18T21:57:27.049Z,88.72
2017-05-18T21:59:53.408Z,88.34
2017-05-18T22:02:19.723Z,87.97
2017-05-18T22:04:46.081Z,87.51
2017-05-18T22:07:12.433Z,87.50
2017-05-18T22:09:38.785Z,85.41
2017-05-18T22:12:05.140Z,87.60
2017-05-18T22:14:31.493Z,87.20
2017-05-18T22:16:57.887Z,88.36
2017-05-18T22:19:24.341Z,87.85
2017-05-18T22:21:50.879Z,86.69
2017-05-18T22:24:17.442Z,83.36
2017-05-18T22:26:43.795Z,78.60
2017-05-18T22:29:10.223Z,79.80
2017-05-18T22:31:36.590Z,83.03
2017-05-18T22:34:02.940Z,84.93
2017-05-18T22:36:29.389Z,86.55
2017-05-18T22:38:55.949Z,86.50
2017-05-18T22:41:22.293Z,86.96
2017-05-18T22:43:49.261Z,84.15
2017-05-18T22:46:15.547Z,87.49
2017-05-18T22:48:41.885Z,88.20
2017-05-18T22:51:08.273Z,88.05
2017-05-18T22:53:34.776Z,88.14
2017-05-18T22:56:01.676Z,86.94
2017-05-18T22:58:27.981Z,88.40
2017-05-18T23:00:54.285Z,85.95
2017-05-18T23:03:20.615Z,85.82
2017-05-18T23:05:48.059Z,85.58
2017-05-18T23:08:14.903Z,87.29
2017-05-18T23:10:41.782Z,86.07
2017-05-18T23:13:08.219Z,79.88
2017-05-18T23:15:34.581Z,83.03
2017-05-18T23:18:00.972Z,83.95
2017-05-18T23:20:27.330Z,80.05
2017-05-18T23:22:54.012Z,82.73
2017-05-18T23:25:20.346Z,87.10
2017-05-18T23:27:46.702Z,86.47
2017-05-18T23:30:13.039Z,88.80
2017-05-18T23:32:39.861Z,85.59
2017-05-18T23:35:07.453Z,84.60
2017-05-18T23:37:33.922Z,87.01
2017-05-18T23:40:00.243Z,83.57
2017-05-18T23:42:26.582Z,81.67
2017-05-18T23:44:53.119Z,79.41
2017-05-18T23:47:19.745Z,85.90
2017-05-18T23:49:46.061Z,85.43
2017-05-18T23:52:12.787Z,88.54
2017-05-18T23:54:39.118Z,87.58
2017-05-18T23:57:05.843Z,86.39
2017-05-18T23:59:32.172Z,87.77
